Portada
METAR-TAF:

METAR-TAF

Aeropuertos :

Aeropuerto Civil de Amán

Amán, Jordania

latitud: 31-59N, longitud: 035-59E, altitud: 767 m

Observación

El informe se hizo hace 22 minutos, a las 19:00 UTC
Viento 6 kt del oeste-noroeste
Temperatura 21°C
Humedad 46%
Presión 1014 hPa
Visibilidad: 8000 m

METAR: OJAM 171900Z 30006KT 8000 NSC 21/09 Q1014 NOSIG

Hora: 22:22 (19:22 UTC)

Pronóstico

El informe se hizo hace 8 horas y 32 minutos, a las 10:50 UTC
Pronóstico válido del 17 a las 12 UTC al 18 a las 18 UTC
Viento 10 kt del oeste-noroeste
Visibilidad: 5000 m
calima
Temporalmente
del 17 a las 13 UTC al 17 a las 17 UTC
Viento 16 kt del noroeste

TAF: OJAM 171050Z 1712/1818 29010KT 5000 HZ NSC TEMPO 1713/1717 31016KT

Observaciones y pronósticos meteorológicos de más de 4000 aeropuertos (mensajes METAR y TAF).

Los puntos amarillos y rojos representan las estaciones disponibles.

Ponga el ratón en el punto deseado para ver el nombre de la estación.

Haga clic para ver las observaciones y los pronósticos meteorológicos.

Para cambiar el mapa : haga clic en los botones verdes con una cruz de color negro para hacer un zoom, en el botón verde con un guión para alejar o en las flechas verdes para mapas adyacentes.


METAR-TAF: